sensor_id;sensor_type;location;lat;lon;timestamp;pressure;altitude;pressure_sealevel;temperature;humidity
18765;BME280;9511;54.242;12.448;2023-07-22T03:04:35;100748.00;;;11.54;100.00
18765;BME280;9511;54.242;12.448;2023-07-22T03:07:03;100761.22;;;11.53;100.00
18765;BME280;9511;54.242;12.448;2023-07-22T03:09:32;100761.22;;;11.53;100.00
18765;BME280;9511;54.242;12.448;2023-07-22T03:11:59;100762.06;;;11.52;100.00
18765;BME280;9511;54.242;12.448;2023-07-22T03:14:27;100756.69;;;11.47;100.00
18765;BME280;9511;54.242;12.448;2023-07-22T03:16:54;100761.06;;;11.47;100.00
18765;BME280;9511;54.242;12.448;2023-07-22T03:19:22;100760.22;;;11.48;100.00
18765;BME280;9511;54.242;12.448;2023-07-22T03:21:51;100767.22;;;11.46;100.00
18765;BME280;9511;54.242;12.448;2023-07-22T03:24:18;100766.31;;;11.43;100.00
18765;BME280;9511;54.242;12.448;2023-07-22T03:26:45;100765.41;;;11.41;100.00
18765;BME280;9511;54.242;12.448;2023-07-22T03:29:13;100773.34;;;11.41;100.00
18765;BME280;9511;54.242;12.448;2023-07-22T03:31:40;100771.59;;;11.43;100.00
18765;BME280;9511;54.242;12.448;2023-07-22T03:34:07;100777.78;;;11.44;100.00
18765;BME280;9511;54.242;12.448;2023-07-22T03:36:35;100777.88;;;11.47;100.00
18765;BME280;9511;54.242;12.448;2023-07-22T03:39:04;100784.06;;;11.48;100.00
18765;BME280;9511;54.242;12.448;2023-07-22T03:41:32;100781.44;;;11.49;100.00
18765;BME280;9511;54.242;12.448;2023-07-22T03:43:59;100789.38;;;11.48;100.00
18765;BME280;9511;54.242;12.448;2023-07-22T03:46:26;100785.81;;;11.47;100.00
18765;BME280;9511;54.242;12.448;2023-07-22T03:48:54;100791.97;;;11.46;100.00
18765;BME280;9511;54.242;12.448;2023-07-22T03:51:21;100790.19;;;11.47;100.00
18765;BME280;9511;54.242;12.448;2023-07-22T03:53:48;100786.66;;;11.46;100.00
18765;BME280;9511;54.242;12.448;2023-07-22T03:56:17;100781.47;;;11.51;100.00
18765;BME280;9511;54.242;12.448;2023-07-22T03:58:44;100781.47;;;11.51;100.00
18765;BME280;9511;54.242;12.448;2023-07-22T04:01:12;100781.50;;;11.52;100.00
18765;BME280;9511;54.242;12.448;2023-07-22T04:03:39;100786.75;;;11.51;100.00
18765;BME280;9511;54.242;12.448;2023-07-22T04:06:07;100785.00;;;11.51;100.00
18765;BME280;9511;54.242;12.448;2023-07-22T04:08:34;100779.84;;;11.57;100.00
18765;BME280;9511;54.242;12.448;2023-07-22T04:11:01;100790.38;;;11.54;100.00
18765;BME280;9511;54.242;12.448;2023-07-22T04:13:30;100787.75;;;11.56;100.00
18765;BME280;9511;54.242;12.448;2023-07-22T04:15:58;100786.03;;;11.58;100.00
18765;BME280;9511;54.242;12.448;2023-07-22T04:18:25;100794.03;;;11.59;100.00
18765;BME280;9511;54.242;12.448;2023-07-22T04:20:55;100799.41;;;11.64;100.00
18765;BME280;9511;54.242;12.448;2023-07-22T04:23:23;100801.25;;;11.66;100.00
18765;BME280;9511;54.242;12.448;2023-07-22T04:25:50;100799.50;;;11.68;100.00
18765;BME280;9511;54.242;12.448;2023-07-22T04:28:18;100801.34;;;11.71;100.00
18765;BME280;9511;54.242;12.448;2023-07-22T04:30:55;100796.06;;;11.73;100.00
18765;BME280;9511;54.242;12.448;2023-07-22T04:33:24;100805.88;;;11.77;100.00
18765;BME280;9511;54.242;12.448;2023-07-22T04:35:53;100792.66;;;11.78;100.00
18765;BME280;9511;54.242;12.448;2023-07-22T04:38:20;100791.97;;;11.87;100.00
18765;BME280;9511;54.242;12.448;2023-07-22T04:40:48;100796.44;;;11.89;100.00
18765;BME280;9511;54.242;12.448;2023-07-22T04:43:15;100798.22;;;11.90;100.00
18765;BME280;9511;54.242;12.448;2023-07-22T04:45:44;100793.91;;;11.95;100.00
18765;BME280;9511;54.242;12.448;2023-07-22T04:48:15;100798.47;;;12.03;100.00
18765;BME280;9511;54.242;12.448;2023-07-22T04:50:44;100801.25;;;12.09;100.00
18765;BME280;9511;54.242;12.448;2023-07-22T04:53:12;100808.47;;;12.16;100.00
18765;BME280;9511;54.242;12.448;2023-07-22T04:55:40;100818.34;;;12.23;100.00
18765;BME280;9511;54.242;12.448;2023-07-22T04:58:08;100819.34;;;12.31;100.00
18765;BME280;9511;54.242;12.448;2023-07-22T05:00:36;100810.50;;;12.29;100.00
18765;BME280;9511;54.242;12.448;2023-07-22T05:03:04;100813.13;;;12.28;100.00
18765;BME280;9511;54.242;12.448;2023-07-22T05:05:33;100805.22;;;12.32;100.00
18765;BME280;9511;54.242;12.448;2023-07-22T05:08:02;100814.06;;;12.31;100.00
18765;BME280;9511;54.242;12.448;2023-07-22T05:10:29;100814.06;;;12.31;100.00
18765;BME280;9511;54.242;12.448;2023-07-22T05:12:57;100816.72;;;12.33;100.00
18765;BME280;9511;54.242;12.448;2023-07-22T05:15:24;100822.88;;;12.30;100.00
18765;BME280;9511;54.242;12.448;2023-07-22T05:17:51;100820.31;;;12.33;100.00
18765;BME280;9511;54.242;12.448;2023-07-22T05:20:19;100824.69;;;12.33;100.00
18765;BME280;9511;54.242;12.448;2023-07-22T05:22:48;100829.16;;;12.34;100.00
18765;BME280;9511;54.242;12.448;2023-07-22T05:25:15;100823.06;;;12.39;100.00
18765;BME280;9511;54.242;12.448;2023-07-22T05:27:42;100825.84;;;12.45;100.00
18765;BME280;9511;54.242;12.448;2023-07-22T05:30:10;100822.31;;;12.46;100.00
18765;BME280;9511;54.242;12.448;2023-07-22T05:32:37;100834.69;;;12.47;100.00
18765;BME280;9511;54.242;12.448;2023-07-22T05:35:05;100826.81;;;12.51;100.00
18765;BME280;9511;54.242;12.448;2023-07-22T05:37:33;100832.19;;;12.55;100.00
18765;BME280;9511;54.242;12.448;2023-07-22T05:40:02;100823.44;;;12.61;100.00
18765;BME280;9511;54.242;12.448;2023-07-22T05:42:30;100841.09;;;12.59;100.00
18765;BME280;9511;54.242;12.448;2023-07-22T05:44:57;100835.88;;;12.63;100.00
18765;BME280;9511;54.242;12.448;2023-07-22T05:47:25;100827.94;;;12.65;100.00
18765;BME280;9511;54.242;12.448;2023-07-22T05:49:52;100840.50;;;12.73;100.00
18765;BME280;9511;54.242;12.448;2023-07-22T05:52:19;100834.25;;;12.73;100.00
18765;BME280;9511;54.242;12.448;2023-07-22T05:54:46;100836.19;;;12.80;100.00
18765;BME280;9511;54.242;12.448;2023-07-22T05:57:15;100837.06;;;12.79;100.00
18765;BME280;9511;54.242;12.448;2023-07-22T05:59:42;100845.13;;;12.85;100.00
18765;BME280;9511;54.242;12.448;2023-07-22T06:02:12;100845.97;;;12.84;100.00
18765;BME280;9511;54.242;12.448;2023-07-22T06:04:40;100848.69;;;12.87;100.00
18765;BME280;9511;54.242;12.448;2023-07-22T06:07:07;100844.31;;;12.91;100.00
18765;BME280;9511;54.242;12.448;2023-07-22T06:09:34;100850.81;;;13.10;100.00
18765;BME280;9511;54.242;12.448;2023-07-22T06:12:03;100844.97;;;13.29;100.00
18765;BME280;9511;54.242;12.448;2023-07-22T06:14:32;100846.97;;;13.44;100.00
18765;BME280;9511;54.242;12.448;2023-07-22T06:16:59;100845.38;;;13.57;100.00
18765;BME280;9511;54.242;12.448;2023-07-22T06:19:26;100848.13;;;13.64;100.00
18765;BME280;9511;54.242;12.448;2023-07-22T06:21:54;100846.59;;;13.81;100.00
18765;BME280;9511;54.242;12.448;2023-07-22T06:24:21;100841.41;;;13.92;100.00
18765;BME280;9511;54.242;12.448;2023-07-22T06:26:48;100836.44;;;14.20;100.00
18765;BME280;9511;54.242;12.448;2023-07-22T06:29:15;100840.94;;;14.25;100.00
18765;BME280;9511;54.242;12.448;2023-07-22T06:31:44;100841.97;;;14.38;100.00
18765;BME280;9511;54.242;12.448;2023-07-22T06:34:11;100840.22;;;14.42;100.00
18765;BME280;9511;54.242;12.448;2023-07-22T06:36:39;100837.53;;;14.39;100.00
18765;BME280;9511;54.242;12.448;2023-07-22T06:39:06;100847.16;;;14.27;100.00
18765;BME280;9511;54.242;12.448;2023-07-22T06:41:33;100848.03;;;14.26;100.00
18765;BME280;9511;54.242;12.448;2023-07-22T06:44:00;100856.06;;;14.31;100.00
18765;BME280;9511;54.242;12.448;2023-07-22T06:46:28;100851.66;;;14.31;100.00
18765;BME280;9511;54.242;12.448;2023-07-22T06:48:57;100854.59;;;14.53;100.00
18765;BME280;9511;54.242;12.448;2023-07-22T06:51:24;100850.19;;;14.58;100.00
18765;BME280;9511;54.242;12.448;2023-07-22T06:53:51;100854.00;;;14.84;100.00
18765;BME280;9511;54.242;12.448;2023-07-22T06:56:18;100854.97;;;14.91;100.00
18765;BME280;9511;54.242;12.448;2023-07-22T06:58:46;100854.28;;;15.15;100.00
18765;BME280;9511;54.242;12.448;2023-07-22T07:01:13;100858.94;;;15.45;100.00
18765;BME280;9511;54.242;12.448;2023-07-22T07:03:41;100849.22;;;15.56;100.00
18765;BME280;9511;54.242;12.448;2023-07-22T07:06:09;100862.31;;;15.21;100.00
18765;BME280;9511;54.242;12.448;2023-07-22T07:08:37;100866.69;;;15.14;100.00
18765;BME280;9511;54.242;12.448;2023-07-22T07:11:04;100865.63;;;14.96;100.00
18765;BME280;9511;54.242;12.448;2023-07-22T07:13:32;100876.19;;;14.82;100.00
18765;BME280;9511;54.242;12.448;2023-07-22T07:16:20;100885.81;;;14.72;100.00
18765;BME280;9511;54.242;12.448;2023-07-22T07:18:48;100870.69;;;14.67;100.00
18765;BME280;9511;54.242;12.448;2023-07-22T07:21:18;100884.16;;;14.85;100.00
18765;BME280;9511;54.242;12.448;2023-07-22T07:23:45;100884.47;;;15.19;100.00
18765;BME280;9511;54.242;12.448;2023-07-22T07:26:12;100876.53;;;15.25;100.00
18765;BME280;9511;54.242;12.448;2023-07-22T07:28:40;100881.94;;;15.34;100.00
18765;BME280;9511;54.242;12.448;2023-07-22T07:31:08;100885.59;;;15.45;100.00
18765;BME280;9511;54.242;12.448;2023-07-22T07:33:35;100880.25;;;15.48;100.00
18765;BME280;9511;54.242;12.448;2023-07-22T07:36:03;100877.78;;;15.70;100.00
18765;BME280;9511;54.242;12.448;2023-07-22T07:38:35;100885.06;;;16.03;99.73
18765;BME280;9511;54.242;12.448;2023-07-22T07:41:03;100891.19;;;15.82;96.52
18765;BME280;9511;54.242;12.448;2023-07-22T07:43:34;100907.22;;;15.88;94.61
18765;BME280;9511;54.242;12.448;2023-07-22T07:46:16;100902.72;;;15.79;93.67
18765;BME280;9511;54.242;12.448;2023-07-22T07:48:45;100908.84;;;15.64;92.19
18765;BME280;9511;54.242;12.448;2023-07-22T07:51:13;100911.34;;;15.46;90.98
18765;BME280;9511;54.242;12.448;2023-07-22T07:53:42;100912.09;;;15.30;90.78
18765;BME280;9511;54.242;12.448;2023-07-22T07:56:11;100911.31;;;15.37;91.51
18765;BME280;9511;54.242;12.448;2023-07-22T07:58:38;100919.25;;;15.34;92.24
18765;BME280;9511;54.242;12.448;2023-07-22T08:01:06;100916.69;;;15.43;92.10
18765;BME280;9511;54.242;12.448;2023-07-22T08:03:35;100924.72;;;15.52;92.51
18765;BME280;9511;54.242;12.448;2023-07-22T08:06:03;100921.41;;;15.78;91.71
18765;BME280;9511;54.242;12.448;2023-07-22T08:08:30;100925.03;;;15.92;91.41
18765;BME280;9511;54.242;12.448;2023-07-22T08:11:02;100922.28;;;15.80;89.11
18765;BME280;9511;54.242;12.448;2023-07-22T08:13:29;100920.59;;;15.91;88.04
18765;BME280;9511;54.242;12.448;2023-07-22T08:15:58;100927.81;;;16.06;86.96
18765;BME280;9511;54.242;12.448;2023-07-22T08:18:26;100930.47;;;16.10;85.05
18765;BME280;9511;54.242;12.448;2023-07-22T08:20:55;100937.59;;;16.16;84.05
18765;BME280;9511;54.242;12.448;2023-07-22T08:23:22;100936.84;;;16.37;83.45
18765;BME280;9511;54.242;12.448;2023-07-22T08:25:50;100933.28;;;16.35;82.42
18765;BME280;9511;54.242;12.448;2023-07-22T08:28:18;100928.88;;;16.55;81.53
18765;BME280;9511;54.242;12.448;2023-07-22T08:30:47;100940.56;;;16.77;81.45
18765;BME280;9511;54.242;12.448;2023-07-22T08:33:15;100936.09;;;16.71;79.99
18765;BME280;9511;54.242;12.448;2023-07-22T08:35:43;100941.38;;;16.65;80.36
18765;BME280;9511;54.242;12.448;2023-07-22T08:38:11;100942.28;;;16.66;80.03
18765;BME280;9511;54.242;12.448;2023-07-22T08:40:39;100944.09;;;16.73;78.74
18765;BME280;9511;54.242;12.448;2023-07-22T08:43:08;100949.38;;;16.68;78.35
18765;BME280;9511;54.242;12.448;2023-07-22T08:45:38;100952.16;;;16.84;78.55
18765;BME280;9511;54.242;12.448;2023-07-22T08:48:07;100949.53;;;17.08;77.98
18765;BME280;9511;54.242;12.448;2023-07-22T08:50:42;100946.00;;;17.21;76.49
18765;BME280;9511;54.242;12.448;2023-07-22T08:53:12;100968.22;;;17.08;74.49
18765;BME280;9511;54.242;12.448;2023-07-22T08:55:39;100962.91;;;17.30;73.20
18765;BME280;9511;54.242;12.448;2023-07-22T08:58:08;100966.50;;;17.51;71.48
18765;BME280;9511;54.242;12.448;2023-07-22T09:00:39;100956.72;;;17.80;71.55
18765;BME280;9511;54.242;12.448;2023-07-22T09:03:07;100964.72;;;17.58;70.16
18765;BME280;9511;54.242;12.448;2023-07-22T09:05:36;100972.72;;;17.49;69.16
18765;BME280;9511;54.242;12.448;2023-07-22T09:08:06;100970.94;;;17.40;68.89
18765;BME280;9511;54.242;12.448;2023-07-22T09:10:34;100980.75;;;17.49;69.04
18765;BME280;9511;54.242;12.448;2023-07-22T09:13:02;100988.78;;;17.28;67.54
18765;BME280;9511;54.242;12.448;2023-07-22T09:15:32;100987.88;;;17.59;68.67
18765;BME280;9511;54.242;12.448;2023-07-22T09:18:03;100979.00;;;17.66;67.62
18765;BME280;9511;54.242;12.448;2023-07-22T09:20:30;100970.97;;;17.89;68.54
18765;BME280;9511;54.242;12.448;2023-07-22T09:22:58;100985.19;;;18.14;67.49
18765;BME280;9511;54.242;12.448;2023-07-22T09:25:27;100977.22;;;17.87;66.70
18765;BME280;9511;54.242;12.448;2023-07-22T09:27:57;100976.25;;;18.24;66.70
18765;BME280;9511;54.242;12.448;2023-07-22T09:30:26;100966.44;;;18.20;64.95
18765;BME280;9511;54.242;12.448;2023-07-22T09:32:56;100984.31;;;18.03;64.53
18765;BME280;9511;54.242;12.448;2023-07-22T09:35:27;100979.88;;;17.88;64.35
18765;BME280;9511;54.242;12.448;2023-07-22T09:37:55;100979.03;;;17.78;64.20
18765;BME280;9511;54.242;12.448;2023-07-22T09:40:24;100986.97;;;17.31;64.57
18765;BME280;9511;54.242;12.448;2023-07-22T09:42:52;100978.97;;;17.63;65.18
18765;BME280;9511;54.242;12.448;2023-07-22T09:45:22;100984.34;;;17.92;64.52
18765;BME280;9511;54.242;12.448;2023-07-22T09:47:50;100985.16;;;18.22;64.87
18765;BME280;9511;54.242;12.448;2023-07-22T09:50:20;100983.41;;;18.24;64.42
18765;BME280;9511;54.242;12.448;2023-07-22T09:52:51;100985.16;;;18.28;63.56
18765;BME280;9511;54.242;12.448;2023-07-22T09:55:19;100979.72;;;18.51;61.95
18765;BME280;9511;54.242;12.448;2023-07-22T09:57:49;100980.63;;;18.44;63.36
18765;BME280;9511;54.242;12.448;2023-07-22T10:00:17;100982.44;;;18.42;62.97
18765;BME280;9511;54.242;12.448;2023-07-22T10:02:47;100997.69;;;18.06;62.24
18765;BME280;9511;54.242;12.448;2023-07-22T10:05:16;100998.56;;;18.11;61.74
18765;BME280;9511;54.242;12.448;2023-07-22T10:07:45;100998.59;;;18.08;61.22
18765;BME280;9511;54.242;12.448;2023-07-22T10:10:15;100999.34;;;18.51;60.97
18765;BME280;9511;54.242;12.448;2023-07-22T10:12:43;100993.16;;;18.39;60.70
18765;BME280;9511;54.242;12.448;2023-07-22T10:15:12;100994.66;;;19.07;61.12
18765;BME280;9511;54.242;12.448;2023-07-22T10:17:40;101000.03;;;19.10;59.56
18765;BME280;9511;54.242;12.448;2023-07-22T10:20:08;100989.41;;;18.86;59.40
18765;BME280;9511;54.242;12.448;2023-07-22T10:22:42;100991.41;;;18.31;60.65
18765;BME280;9511;54.242;12.448;2023-07-22T10:25:11;100992.31;;;18.17;62.14
18765;BME280;9511;54.242;12.448;2023-07-22T10:27:40;100998.59;;;18.13;63.30
18765;BME280;9511;54.242;12.448;2023-07-22T10:30:09;101009.28;;;18.00;64.09
18765;BME280;9511;54.242;12.448;2023-07-22T10:32:39;101027.16;;;17.94;67.79
18765;BME280;9511;54.242;12.448;2023-07-22T10:35:11;101021.75;;;17.20;72.49
18765;BME280;9511;54.242;12.448;2023-07-22T10:37:39;101033.25;;;16.98;77.00
18765;BME280;9511;54.242;12.448;2023-07-22T10:40:19;101028.63;;;16.66;79.10
18765;BME280;9511;54.242;12.448;2023-07-22T10:43:04;101033.75;;;16.24;80.76
18765;BME280;9511;54.242;12.448;2023-07-22T10:45:33;101044.53;;;16.37;82.02
18765;BME280;9511;54.242;12.448;2023-07-22T10:48:03;101049.72;;;16.14;81.43
18765;BME280;9511;54.242;12.448;2023-07-22T10:50:42;101050.59;;;16.13;81.46
18765;BME280;9511;54.242;12.448;2023-07-22T10:53:11;101048.59;;;15.83;81.60
18765;BME280;9511;54.242;12.448;2023-07-22T10:56:13;101046.72;;;15.76;81.58
18765;BME280;9511;54.242;12.448;2023-07-22T10:59:00;101045.91;;;15.82;80.68
18765;BME280;9511;54.242;12.448;2023-07-22T11:01:35;101042.56;;;16.10;79.14
18765;BME280;9511;54.242;12.448;2023-07-22T11:04:09;101034.94;;;16.73;78.73
18765;BME280;9511;54.242;12.448;2023-07-22T11:06:38;101036.88;;;17.18;77.16
18765;BME280;9511;54.242;12.448;2023-07-22T11:09:06;101034.25;;;17.66;76.44
18765;BME280;9511;54.242;12.448;2023-07-22T11:11:38;101021.78;;;18.18;74.57
18765;BME280;9511;54.242;12.448;2023-07-22T11:14:15;101025.28;;;18.52;72.92
18765;BME280;9511;54.242;12.448;2023-07-22T11:16:44;101018.13;;;18.53;71.56
18765;BME280;9511;54.242;12.448;2023-07-22T11:19:13;101019.75;;;18.92;70.96
18765;BME280;9511;54.242;12.448;2023-07-22T11:21:40;101022.53;;;18.77;69.58
18765;BME280;9511;54.242;12.448;2023-07-22T11:24:08;101015.38;;;18.67;69.68
18765;BME280;9511;54.242;12.448;2023-07-22T11:26:36;101018.91;;;18.84;69.04
18765;BME280;9511;54.242;12.448;2023-07-22T11:29:05;101027.81;;;18.86;67.98
18765;BME280;9511;54.242;12.448;2023-07-22T11:31:36;101019.88;;;18.60;64.81
18765;BME280;9511;54.242;12.448;2023-07-22T11:34:03;101021.66;;;18.60;64.52
18765;BME280;9511;54.242;12.448;2023-07-22T11:36:31;101027.88;;;18.77;63.88
18765;BME280;9511;54.242;12.448;2023-07-22T11:39:02;101031.19;;;19.28;63.43
18765;BME280;9511;54.242;12.448;2023-07-22T11:41:29;101025.75;;;19.39;63.51
18765;BME280;9511;54.242;12.448;2023-07-22T11:43:57;101016.38;;;19.96;63.35
18765;BME280;9511;54.242;12.448;2023-07-22T11:46:25;101016.41;;;19.93;61.52
18765;BME280;9511;54.242;12.448;2023-07-22T11:48:55;101016.25;;;20.10;59.81
18765;BME280;9511;54.242;12.448;2023-07-22T11:51:23;101010.00;;;20.08;59.05
18765;BME280;9511;54.242;12.448;2023-07-22T11:53:54;101016.13;;;20.21;59.42
18765;BME280;9511;54.242;12.448;2023-07-22T11:56:22;101017.94;;;20.20;57.58
18765;BME280;9511;54.242;12.448;2023-07-22T11:58:51;101011.66;;;20.20;57.49
18765;BME280;9511;54.242;12.448;2023-07-22T12:01:19;101014.75;;;20.66;56.33
18765;BME280;9511;54.242;12.448;2023-07-22T12:03:46;101020.06;;;20.72;55.47
18765;BME280;9511;54.242;12.448;2023-07-22T12:06:15;101010.81;;;20.94;54.84
18765;BME280;9511;54.242;12.448;2023-07-22T12:08:46;101000.78;;;21.06;54.51
18765;BME280;9511;54.242;12.448;2023-07-22T12:11:17;101007.50;;;21.37;53.21
18765;BME280;9511;54.242;12.448;2023-07-22T12:13:45;101009.09;;;21.52;53.06
18765;BME280;9511;54.242;12.448;2023-07-22T12:16:21;101004.28;;;21.71;53.02
18765;BME280;9511;54.242;12.448;2023-07-22T12:18:49;100998.22;;;22.08;52.83
18765;BME280;9511;54.242;12.448;2023-07-22T12:21:18;101008.81;;;22.21;50.79
18765;BME280;9511;54.242;12.448;2023-07-22T12:23:45;100989.28;;;22.06;51.03
18765;BME280;9511;54.242;12.448;2023-07-22T12:26:13;101002.00;;;22.48;50.37
18765;BME280;9511;54.242;12.448;2023-07-22T12:28:40;101002.38;;;22.29;50.01
18765;BME280;9511;54.242;12.448;2023-07-22T12:31:08;101001.97;;;22.50;48.82
18765;BME280;9511;54.242;12.448;2023-07-22T12:33:36;100998.53;;;21.92;50.11
18765;BME280;9511;54.242;12.448;2023-07-22T12:36:04;101004.84;;;21.36;51.43
18765;BME280;9511;54.242;12.448;2023-07-22T12:38:33;101014.19;;;21.09;52.54
18765;BME280;9511;54.242;12.448;2023-07-22T12:41:01;101022.06;;;20.52;53.66
18765;BME280;9511;54.242;12.448;2023-07-22T12:43:28;101018.78;;;20.24;53.74
18765;BME280;9511;54.242;12.448;2023-07-22T12:45:56;101019.88;;;20.01;55.23
18765;BME280;9511;54.242;12.448;2023-07-22T12:48:23;101026.66;;;19.39;56.52
18765;BME280;9511;54.242;12.448;2023-07-22T12:50:51;101023.00;;;19.51;58.15
18765;BME280;9511;54.242;12.448;2023-07-22T12:53:18;101024.25;;;18.93;58.92
18765;BME280;9511;54.242;12.448;2023-07-22T12:55:47;101021.50;;;19.05;59.84
18765;BME280;9511;54.242;12.448;2023-07-22T12:58:15;101018.94;;;18.82;62.79
18765;BME280;9511;54.242;12.448;2023-07-22T13:00:42;101022.53;;;18.74;64.81
18765;BME280;9511;54.242;12.448;2023-07-22T13:03:10;101019.84;;;18.66;65.96
18765;BME280;9511;54.242;12.448;2023-07-22T13:05:37;101009.19;;;18.49;66.39
18765;BME280;9511;54.242;12.448;2023-07-22T13:08:04;101010.97;;;18.46;67.46
18765;BME280;9511;54.242;12.448;2023-07-22T13:10:31;101015.41;;;18.59;66.60
18765;BME280;9511;54.242;12.448;2023-07-22T13:13:03;101004.88;;;19.82;63.35
18765;BME280;9511;54.242;12.448;2023-07-22T13:15:32;101009.00;;;20.20;58.83
18765;BME280;9511;54.242;12.448;2023-07-22T13:17:59;101022.25;;;19.29;55.84
18765;BME280;9511;54.242;12.448;2023-07-22T13:20:26;101010.00;;;18.82;55.71
18765;BME280;9511;54.242;12.448;2023-07-22T13:22:54;101014.50;;;18.65;56.33
18765;BME280;9511;54.242;12.448;2023-07-22T13:25:22;101020.75;;;18.68;56.48
18765;BME280;9511;54.242;12.448;2023-07-22T13:27:49;101015.03;;;19.37;56.32
18765;BME280;9511;54.242;12.448;2023-07-22T13:30:17;101015.50;;;19.96;54.45
18765;BME280;9511;54.242;12.448;2023-07-22T13:32:45;101004.69;;;20.02;53.64
18765;BME280;9511;54.242;12.448;2023-07-22T13:35:12;101019.00;;;20.04;53.08
18765;BME280;9511;54.242;12.448;2023-07-22T13:37:39;101012.91;;;19.82;53.13
18765;BME280;9511;54.242;12.448;2023-07-22T13:40:08;101026.59;;;19.47;52.10
18765;BME280;9511;54.242;12.448;2023-07-22T13:42:37;101019.72;;;20.21;51.92
18765;BME280;9511;54.242;12.448;2023-07-22T13:45:05;101038.50;;;20.21;53.24
18765;BME280;9511;54.242;12.448;2023-07-22T13:47:34;101036.75;;;20.20;53.83
18765;BME280;9511;54.242;12.448;2023-07-22T13:50:01;101024.47;;;19.88;54.37
18765;BME280;9511;54.242;12.448;2023-07-22T13:52:29;101028.31;;;19.60;55.24
18765;BME280;9511;54.242;12.448;2023-07-22T13:54:57;101023.94;;;19.42;55.97
18765;BME280;9511;54.242;12.448;2023-07-22T13:57:24;101020.41;;;19.39;56.92
18765;BME280;9511;54.242;12.448;2023-07-22T13:59:51;101028.63;;;19.11;56.35
18765;BME280;9511;54.242;12.448;2023-07-22T14:02:18;101022.28;;;19.20;57.63
18765;BME280;9511;54.242;12.448;2023-07-22T14:04:47;101020.53;;;19.14;58.15
18765;BME280;9511;54.242;12.448;2023-07-22T14:07:14;101020.47;;;19.28;58.28
18765;BME280;9511;54.242;12.448;2023-07-22T14:09:43;101022.28;;;19.23;56.84
18765;BME280;9511;54.242;12.448;2023-07-22T14:12:13;101032.16;;;19.13;57.75
18765;BME280;9511;54.242;12.448;2023-07-22T14:14:40;101042.06;;;19.00;58.70
18765;BME280;9511;54.242;12.448;2023-07-22T14:17:08;101032.16;;;19.13;60.65
18765;BME280;9511;54.242;12.448;2023-07-22T14:19:35;101024.91;;;19.33;61.25
18765;BME280;9511;54.242;12.448;2023-07-22T14:22:04;101024.59;;;19.79;61.18
18765;BME280;9511;54.242;12.448;2023-07-22T14:24:32;101017.59;;;19.54;62.68
18765;BME280;9511;54.242;12.448;2023-07-22T14:26:59;101028.47;;;19.32;61.38
18765;BME280;9511;54.242;12.448;2023-07-22T14:29:26;101017.88;;;19.11;61.15
18765;BME280;9511;54.242;12.448;2023-07-22T14:31:55;101021.41;;;19.19;61.43
18765;BME280;9511;54.242;12.448;2023-07-22T14:34:23;101015.91;;;19.37;60.82
18765;BME280;9511;54.242;12.448;2023-07-22T14:36:50;101013.34;;;20.28;61.05
18765;BME280;9511;54.242;12.448;2023-07-22T14:39:19;101002.97;;;20.75;60.33
18765;BME280;9511;54.242;12.448;2023-07-22T14:41:46;101003.88;;;20.77;59.58
18765;BME280;9511;54.242;12.448;2023-07-22T14:44:13;101001.19;;;20.75;58.19
18765;BME280;9511;54.242;12.448;2023-07-22T14:46:40;101005.44;;;20.94;58.15
18765;BME280;9511;54.242;12.448;2023-07-22T14:49:08;101000.34;;;20.70;57.50
18765;BME280;9511;54.242;12.448;2023-07-22T14:51:35;101002.59;;;20.31;57.63
18765;BME280;9511;54.242;12.448;2023-07-22T14:54:03;101003.00;;;19.88;58.45
18765;BME280;9511;54.242;12.448;2023-07-22T14:56:32;101008.63;;;19.62;58.51
18765;BME280;9511;54.242;12.448;2023-07-22T14:58:59;101014.81;;;19.71;59.68
18765;BME280;9511;54.242;12.448;2023-07-22T15:01:27;101010.50;;;19.47;60.10
18765;BME280;9511;54.242;12.448;2023-07-22T15:04:03;101010.47;;;19.50;60.68
18765;BME280;9511;54.242;12.448;2023-07-22T15:06:30;101009.69;;;19.32;61.52
18765;BME280;9511;54.242;12.448;2023-07-22T15:08:58;101017.81;;;19.20;61.50
18765;BME280;9511;54.242;12.448;2023-07-22T15:11:25;101019.81;;;18.88;62.60
18765;BME280;9511;54.242;12.448;2023-07-22T15:13:54;101031.53;;;18.39;63.41
18765;BME280;9511;54.242;12.448;2023-07-22T15:16:21;101040.50;;;18.23;65.25
18765;BME280;9511;54.242;12.448;2023-07-22T15:18:48;101042.31;;;17.89;66.67
18765;BME280;9511;54.242;12.448;2023-07-22T15:21:15;101042.28;;;17.57;68.64
18765;BME280;9511;54.242;12.448;2023-07-22T15:23:43;101036.91;;;17.34;70.72
18765;BME280;9511;54.242;12.448;2023-07-22T15:26:10;101036.91;;;17.40;72.60
18765;BME280;9511;54.242;12.448;2023-07-22T15:28:37;101034.25;;;17.40;73.62
18765;BME280;9511;54.242;12.448;2023-07-22T15:31:07;101031.56;;;17.41;74.96
18765;BME280;9511;54.242;12.448;2023-07-22T15:33:35;101021.78;;;17.65;75.84
18765;BME280;9511;54.242;12.448;2023-07-22T15:36:02;101030.69;;;17.41;75.10
18765;BME280;9511;54.242;12.448;2023-07-22T15:38:30;101009.31;;;17.62;75.49
18765;BME280;9511;54.242;12.448;2023-07-22T15:40:58;101006.66;;;17.82;74.83
18765;BME280;9511;54.242;12.448;2023-07-22T15:43:25;101003.06;;;18.14;73.15
18765;BME280;9511;54.242;12.448;2023-07-22T15:45:52;100993.91;;;18.79;71.37
18765;BME280;9511;54.242;12.448;2023-07-22T15:48:21;100991.19;;;18.93;69.23
18765;BME280;9511;54.242;12.448;2023-07-22T15:50:48;101000.13;;;18.89;70.04
18765;BME280;9511;54.242;12.448;2023-07-22T15:53:16;100993.97;;;18.61;71.30
18765;BME280;9511;54.242;12.448;2023-07-22T15:55:43;100991.34;;;18.41;71.81